Terminal Aerodrome Forecast
Issued by NWS Hastings, NE

Home | Current Version | Previous Version | Text Only | Print | Product List | Glossary On
Versions: 1 2 3 4 5 6 7 8 9 10 11 12 13 14 15 16 17 18 19 20 21
176
FTUS45 KGID 142335
TAFEAR
TAF
KEAR 142335Z 1500/1524 VRB05KT P6SM OVC090
     FM150800 28008KT P6SM BKN140
     FM152000 24008KT P6SM SCT200
      AMD LTD TO CLD VIS AND WIND=

USA.gov is the U.S. government's official web portal to all federal, state and local government web resources and services.